Time;durP1;ratioP1;P1;durP2;ratioP2;P2;SDS_P1;SDS_P2;PMS_P1;PMS_P2;Temp;Humidity;BMP_temperature;BMP_pressure;BME280_temperature;BME280_humidity;BME280_pressure;Samples;Min_cycle;Max_cycle;Signal;HPM_P1;HPM_P2
2022/08/25 00:01:57;;;;;;;17.05;8.60;;;;;;;21.73;94.77;94541.38;5069704;28;20198;-82
2022/08/25 00:04:25;;;;;;;19.50;9.07;;;;;;;21.65;95.08;94528.63;5069613;28;20257;-82
2022/08/25 00:06:54;;;;;;;16.13;8.73;;;;;;;21.72;95.56;94550.22;5069716;28;20658;-83
2022/08/25 00:09:23;;;;;;;15.68;8.85;;;;;;;21.66;95.96;94546.63;5070016;28;20198;-82
2022/08/25 00:11:51;;;;;;;18.15;9.63;;;;;;;21.64;96.15;94540.84;5070079;28;20182;-82
2022/08/25 00:14:21;;;;;;;21.48;8.43;;;;;;;21.70;95.99;94547.78;5070525;28;20193;-82
2022/08/25 00:16:48;;;;;;;16.83;9.57;;;;;;;21.65;96.51;94539.03;5069662;28;20197;-82
2022/08/25 00:19:19;;;;;;;18.60;9.00;;;;;;;21.72;95.97;94545.78;5070077;28;20186;-81
2022/08/25 00:21:47;;;;;;;15.85;8.27;;;;;;;21.69;96.23;94546.19;5069410;28;20198;-82
2022/08/25 00:24:16;;;;;;;15.10;8.43;;;;;;;21.68;96.66;94534.22;5070051;28;20312;-82
2022/08/25 00:26:46;;;;;;;12.40;7.60;;;;;;;21.69;96.59;94533.19;5070198;28;20189;-82
2022/08/25 00:29:14;;;;;;;20.90;8.80;;;;;;;21.33;96.49;94475.75;5070277;28;20702;-83
2022/08/25 00:31:41;;;;;;;19.17;8.52;;;;;;;21.53;96.71;94508.47;5069581;28;20202;-82
2022/08/25 00:34:10;;;;;;;14.70;8.45;;;;;;;21.53;97.28;94508.47;5069576;28;20190;-82
2022/08/25 00:36:39;;;;;;;18.70;9.07;;;;;;;21.63;96.93;94523.63;5069794;28;20190;-82
2022/08/25 00:39:08;;;;;;;18.73;8.93;;;;;;;21.66;96.91;94527.59;5069638;28;20193;-82
2022/08/25 00:41:35;;;;;;;16.88;9.13;;;;;;;21.50;97.10;94503.69;5071167;28;20198;-82
2022/08/25 00:44:05;;;;;;;14.43;8.80;;;;;;;21.46;96.83;94505.13;5070254;28;20229;-81
2022/08/25 00:46:35;;;;;;;25.17;9.73;;;;;;;21.61;97.42;94524.84;5070417;28;20191;-82
2022/08/25 00:49:06;;;;;;;16.00;8.25;;;;;;;21.45;97.88;94520.91;5071059;28;20198;-82
2022/08/25 00:51:38;;;;;;;17.75;8.48;;;;;;;21.59;97.67;94545.88;5070563;28;20194;-81
2022/08/25 00:54:08;;;;;;;18.17;8.40;;;;;;;21.54;98.01;94540.47;5070482;28;20188;-82
2022/08/25 00:56:38;;;;;;;16.65;8.70;;;;;;;21.51;98.40;94540.91;5070862;28;20194;-81
2022/08/25 00:59:06;;;;;;;21.67;10.07;;;;;;;21.52;98.26;94545.91;5074450;28;20576;-82
2022/08/25 01:01:32;;;;;;;15.23;9.07;;;;;;;21.53;98.45;94539.69;5080603;28;20191;-81
2022/08/25 01:03:59;;;;;;;12.38;8.02;;;;;;;21.53;98.60;94539.69;5079616;28;20222;-79
2022/08/25 01:06:31;;;;;;;15.38;9.00;;;;;;;21.49;99.06;94535.09;5084207;28;20191;-81
2022/08/25 01:12:01;;;;;;;16.20;9.02;;;;;;;21.57;99.25;94511.44;5072856;28;20194;-82
2022/08/25 01:14:32;;;;;;;23.02;9.93;;;;;;;21.57;99.18;94502.84;5082617;28;20220;-83
2022/08/25 01:16:59;;;;;;;19.80;9.63;;;;;;;21.20;99.03;94446.22;5088126;28;20216;-80
2022/08/25 01:19:29;;;;;;;15.98;8.10;;;;;;;21.57;99.30;94506.25;5087760;28;20307;-81
2022/08/25 01:21:58;;;;;;;16.85;8.98;;;;;;;21.56;98.61;94512.47;5075298;28;20194;-82
2022/08/25 01:24:36;;;;;;;17.67;9.50;;;;;;;21.15;97.91;94468.63;5070679;28;20589;-82
2022/08/25 01:27:04;;;;;;;27.95;10.07;;;;;;;21.26;98.00;94499.97;5072395;28;20194;-83
2022/08/25 01:29:31;;;;;;;22.42;9.23;;;;;;;21.36;97.91;94512.56;5070054;28;20182;-83
2022/08/25 01:32:01;;;;;;;15.73;9.20;;;;;;;21.27;97.81;94506.78;5070715;28;20206;-82
2022/08/25 01:34:34;;;;;;;23.73;9.23;;;;;;;21.40;97.55;94510.34;5073449;28;20702;-83
2022/08/25 01:37:03;;;;;;;27.30;9.43;;;;;;;21.32;97.35;94507.97;5072979;28;20308;-80
2022/08/25 01:39:32;;;;;;;15.45;7.95;;;;;;;21.43;96.89;94515.94;5073740;28;20571;-82
2022/08/25 01:42:12;;;;;;;18.27;9.68;;;;;;;21.35;96.81;94508.38;5073199;28;20264;-81
2022/08/25 01:44:53;;;;;;;16.85;9.07;;;;;;;21.23;96.41;94491.78;5073101;28;20233;-79
2022/08/25 01:47:20;;;;;;;16.85;8.57;;;;;;;21.26;96.73;94514.78;5071628;28;20204;-81
2022/08/25 01:49:47;;;;;;;12.07;8.43;;;;;;;21.17;97.17;94505.63;5073768;28;20197;-81
2022/08/25 01:52:23;;;;;;;18.33;9.20;;;;;;;21.21;97.41;94512.81;5073556;28;20646;-81
2022/08/25 01:54:50;;;;;;;19.83;8.55;;;;;;;21.21;97.29;94510.22;5078904;28;20190;-81
2022/08/25 01:57:17;;;;;;;18.48;9.07;;;;;;;21.21;97.51;94520.63;5082445;28;20194;-82
2022/08/25 01:59:44;;;;;;;19.05;7.65;;;;;;;21.23;97.48;94518.59;5079600;28;20201;-82
2022/08/25 02:02:11;;;;;;;21.58;8.57;;;;;;;21.22;97.55;94513.63;5081716;28;20201;-79
2022/08/25 02:04:38;;;;;;;19.45;8.35;;;;;;;21.28;97.56;94510.16;5082344;28;20367;-79
2022/08/25 02:07:08;;;;;;;21.92;9.52;;;;;;;21.30;97.69;94516.78;5082313;28;20684;-81
2022/08/25 02:09:37;;;;;;;22.13;8.02;;;;;;;21.32;97.68;94505.38;5081656;28;20670;-81
2022/08/25 02:12:04;;;;;;;20.30;8.50;;;;;;;21.34;97.97;94503.38;5081284;28;20218;-81
2022/08/25 02:14:31;;;;;;;22.95;8.02;;;;;;;21.34;97.27;94509.38;5078688;28;20182;-81
2022/08/25 02:16:59;;;;;;;17.48;7.95;;;;;;;21.38;97.07;94489.75;5077754;28;20209;-80
2022/08/25 02:19:26;;;;;;;17.38;8.18;;;;;;;21.47;96.32;94501.50;5079591;28;20646;-81
2022/08/25 02:21:53;;;;;;;24.67;8.60;;;;;;;21.42;96.35;94488.31;5077749;28;20194;-82
2022/08/25 02:24:20;;;;;;;22.15;7.43;;;;;;;21.47;95.95;94498.91;5073025;28;20245;-80
2022/08/25 02:26:49;;;;;;;18.23;7.95;;;;;;;21.47;96.01;94496.28;5072232;28;20198;-79
2022/08/25 02:29:17;;;;;;;26.38;8.15;;;;;;;21.46;96.09;94496.47;5071698;28;20193;-83
2022/08/25 02:31:44;;;;;;;18.65;8.45;;;;;;;21.47;96.13;94496.28;5072105;28;20652;-82
2022/08/25 02:34:11;;;;;;;19.50;7.88;;;;;;;21.44;95.95;94488.09;5071554;28;20694;-80
2022/08/25 02:36:39;;;;;;;14.52;8.05;;;;;;;21.39;96.08;94480.94;5071995;28;20537;-79
2022/08/25 02:39:08;;;;;;;17.17;7.90;;;;;;;21.36;96.29;94473.53;5071688;28;20190;-79
2022/08/25 02:41:35;;;;;;;13.98;7.30;;;;;;;21.41;96.44;94491.91;5071540;28;20581;-82
2022/08/25 02:44:04;;;;;;;19.92;7.93;;;;;;;21.32;96.08;94479.38;5070659;28;20253;-82
2022/08/25 02:46:31;;;;;;;23.95;7.72;;;;;;;21.35;96.40;94484.97;5071668;28;20228;-82
2022/08/25 02:48:59;;;;;;;16.67;7.47;;;;;;;21.39;96.47;94493.16;5072259;28;20190;-81
2022/08/25 02:51:28;;;;;;;24.50;7.43;;;;;;;21.33;96.35;94481.78;5071213;28;20186;-81
2022/08/25 02:53:56;;;;;;;12.90;7.35;;;;;;;21.36;96.15;94488.34;5071482;28;20187;-82
2022/08/25 02:56:24;;;;;;;18.02;8.50;;;;;;;21.28;96.07;94473.75;5071479;28;20198;-79
2022/08/25 02:58:51;;;;;;;14.95;7.70;;;;;;;21.32;95.97;94481.97;5071560;28;20229;-82
2022/08/25 03:01:21;;;;;;;15.77;7.72;;;;;;;21.46;95.96;94510.31;5071251;28;20209;-80
2022/08/25 03:03:51;;;;;;;19.83;7.63;;;;;;;21.48;95.80;94502.28;5071413;28;20218;-80
2022/08/25 03:06:30;;;;;;;29.27;7.93;;;;;;;21.49;95.84;94509.88;5071780;28;20304;-83
2022/08/25 03:08:58;;;;;;;13.15;7.78;;;;;;;21.19;96.10;94470.59;5074261;28;20224;-80
2022/08/25 03:11:25;;;;;;;19.13;7.57;;;;;;;21.32;95.87;94490.56;5073704;28;20278;-81
2022/08/25 03:13:52;;;;;;;19.88;7.43;;;;;;;21.54;95.74;94510.06;5072791;28;20201;-80
2022/08/25 03:16:21;;;;;;;22.42;7.45;;;;;;;21.54;95.95;94506.66;5072206;28;20190;-81
2022/08/25 03:18:51;;;;;;;12.52;6.70;;;;;;;21.47;95.89;94488.50;5072693;28;20190;-81
2022/08/25 03:21:19;;;;;;;25.98;8.13;;;;;;;21.43;96.01;94487.31;5074062;28;20658;-83
2022/08/25 03:23:55;;;;;;;19.90;7.60;;;;;;;21.02;96.18;94425.28;5073419;28;20218;-82
2022/08/25 03:29:12;;;;;;;14.68;7.28;;;;;;;20.94;95.95;94413.34;5072396;28;20194;-82
2022/08/25 03:31:47;;;;;;;15.38;7.20;;;;;;;20.87;95.53;94399.59;5072723;28;20182;-82
2022/08/25 03:34:16;;;;;;;15.65;7.38;;;;;;;21.56;95.59;94509.06;5074224;28;20723;-84
2022/08/25 03:36:44;;;;;;;21.10;8.48;;;;;;;21.24;95.49;94464.78;5076063;28;20221;-81
2022/08/25 03:39:11;;;;;;;18.30;8.07;;;;;;;21.52;95.63;94506.06;5073330;28;20186;-81
2022/08/25 03:41:39;;;;;;;13.20;6.38;;;;;;;21.59;95.53;94517.25;5070682;28;20194;-83
2022/08/25 03:44:08;;;;;;;17.38;7.30;;;;;;;21.58;95.40;94510.44;5070288;28;20612;-82
2022/08/25 03:46:40;;;;;;;16.73;8.48;;;;;;;21.62;95.44;94514.22;5070284;28;20237;-80
2022/08/25 03:49:10;;;;;;;27.30;8.70;;;;;;;21.57;95.71;94501.03;5070757;28;20190;-82
2022/08/25 03:51:41;;;;;;;22.35;8.30;;;;;;;21.54;95.41;94489.25;5070385;28;20202;-83
2022/08/25 03:54:10;;;;;;;13.80;7.63;;;;;;;21.61;95.87;94491.00;5070143;28;20198;-82
2022/08/25 03:56:37;;;;;;;17.98;8.30;;;;;;;21.63;95.92;94504.59;5069523;28;20186;-82
2022/08/25 03:59:04;;;;;;;16.92;7.18;;;;;;;21.62;96.00;94505.59;5070025;28;20185;-80
2022/08/25 04:01:31;;;;;;;20.15;8.35;;;;;;;21.56;95.50;94483.84;5069947;28;20195;-82
2022/08/25 04:03:58;;;;;;;17.58;8.07;;;;;;;21.65;95.64;94495.56;5069860;28;20228;-81
2022/08/25 04:06:26;;;;;;;17.33;8.02;;;;;;;21.55;95.70;94477.03;5069657;28;20197;-82
2022/08/25 04:08:57;;;;;;;14.75;7.13;;;;;;;21.63;95.31;94489.78;5070044;28;20194;-84
2022/08/25 04:11:25;;;;;;;20.20;8.10;;;;;;;21.68;95.09;94497.78;5069291;28;20213;-82
2022/08/25 04:13:53;;;;;;;17.63;8.18;;;;;;;21.36;95.24;94450.13;5069940;28;20188;-80
2022/08/25 04:16:25;;;;;;;13.85;7.63;;;;;;;21.59;95.42;94480.00;5070077;28;20186;-81
2022/08/25 04:18:54;;;;;;;12.77;8.18;;;;;;;21.72;95.15;94503.34;5070393;28;20185;-80
2022/08/25 04:21:23;;;;;;;14.07;7.85;;;;;;;21.75;94.99;94510.72;5070525;28;20277;-80
2022/08/25 04:23:53;;;;;;;13.57;8.00;;;;;;;21.65;95.24;94495.56;5070125;28;20214;-81
2022/08/25 04:26:23;;;;;;;17.50;8.10;;;;;;;21.58;95.19;94471.41;5069587;28;20194;-81
2022/08/25 04:28:50;;;;;;;16.83;9.05;;;;;;;21.68;95.64;94482.16;5069596;28;20285;-82
2022/08/25 04:31:18;;;;;;;19.63;8.32;;;;;;;21.79;95.36;94496.28;5069517;28;20212;-81
2022/08/25 04:33:46;;;;;;;16.05;9.45;;;;;;;21.69;95.19;94473.31;5069609;28;20212;-84
2022/08/25 04:36:17;;;;;;;16.55;8.63;;;;;;;21.72;95.45;94480.72;5069491;28;20183;-84
2022/08/25 04:38:44;;;;;;;20.85;10.02;;;;;;;21.79;95.09;94485.88;5069117;28;20210;-83
2022/08/25 04:41:14;;;;;;;14.80;8.75;;;;;;;21.86;95.26;94499.63;5069442;28;20273;-81
2022/08/25 04:43:46;;;;;;;17.98;9.18;;;;;;;21.79;95.54;94489.25;5069631;28;20191;-82
2022/08/25 04:46:16;;;;;;;17.00;9.23;;;;;;;21.86;95.91;94502.25;5069059;28;20280;-82
2022/08/25 04:48:43;;;;;;;31.92;9.40;;;;;;;21.61;96.04;94459.78;5068811;28;20506;-81
2022/08/25 04:51:12;;;;;;;13.90;9.23;;;;;;;21.97;95.93;94513.75;5068891;28;20194;-81
2022/08/25 04:53:40;;;;;;;22.40;9.38;;;;;;;21.98;95.39;94505.75;5069492;28;20240;-81
2022/08/25 04:56:08;;;;;;;21.17;10.05;;;;;;;22.02;93.31;94512.13;5068850;28;20187;-81
2022/08/25 04:58:37;;;;;;;35.05;9.52;;;;;;;22.11;93.20;94514.47;5069892;28;20190;-81
2022/08/25 05:01:05;;;;;;;19.20;9.73;;;;;;;22.16;93.15;94509.44;5069133;28;20696;-82
2022/08/25 05:03:32;;;;;;;23.90;9.65;;;;;;;22.12;93.04;94505.63;5070069;28;20187;-82
2022/08/25 05:05:59;;;;;;;18.83;9.13;;;;;;;22.05;92.53;94475.22;5072035;28;20701;-82
2022/08/25 05:08:26;;;;;;;22.70;8.70;;;;;;;22.37;92.26;94511.66;5074683;28;20187;-82
2022/08/25 05:10:58;;;;;;;21.02;9.55;;;;;;;22.46;92.38;94522.59;5073280;28;20198;-81
2022/08/25 05:13:26;;;;;;;23.67;9.70;;;;;;;22.20;90.11;94481.97;5073717;28;20270;-82
2022/08/25 05:15:57;;;;;;;19.55;8.55;;;;;;;22.56;89.50;94503.84;5073502;28;20645;-83
2022/08/25 05:18:26;;;;;;;13.77;8.70;;;;;;;22.63;89.77;94512.41;5073037;28;20619;-84
2022/08/25 05:20:53;;;;;;;22.70;9.13;;;;;;;22.66;89.51;94507.53;5074221;28;20197;-84
2022/08/25 05:23:21;;;;;;;18.48;8.10;;;;;;;22.32;88.97;94456.78;5072503;28;20198;-82
2022/08/25 05:25:48;;;;;;;20.95;9.80;;;;;;;22.19;89.10;94438.66;5073153;28;20709;-80
2022/08/25 05:28:15;;;;;;;23.90;9.25;;;;;;;22.60;89.46;94498.00;5072434;28;20222;-82
2022/08/25 05:30:55;;;;;;;16.52;9.00;;;;;;;22.48;89.62;94473.66;5073344;28;20186;-84
2022/08/25 05:33:38;;;;;;;21.83;9.13;;;;;;;22.36;88.78;94438.91;5072482;28;20209;-85
2022/08/25 05:36:07;;;;;;;17.25;8.27;;;;;;;22.61;89.12;94470.09;5072310;28;20197;-83
2022/08/25 05:38:39;;;;;;;29.98;9.45;;;;;;;22.67;88.83;94470.06;5072948;28;20205;-82
2022/08/25 05:41:15;;;;;;;15.57;9.05;;;;;;;22.21;88.69;94403.59;5071985;28;20195;-81
2022/08/25 05:43:44;;;;;;;19.70;10.27;;;;;;;22.99;87.15;94501.19;5072000;28;20736;-81
2022/08/25 05:46:11;;;;;;;20.10;8.23;;;;;;;22.99;87.35;94511.63;5072116;28;20226;-82
2022/08/25 05:48:40;;;;;;;21.13;9.00;;;;;;;22.87;87.15;94476.84;5072127;28;20255;-82
2022/08/25 05:51:10;;;;;;;15.93;8.82;;;;;;;23.13;87.15;94501.81;5072550;28;20197;-81
2022/08/25 05:53:40;;;;;;;21.88;8.80;;;;;;;23.19;86.71;94504.38;5072237;28;20213;-82
2022/08/25 05:56:07;;;;;;;18.42;7.97;;;;;;;22.94;86.05;94460.13;5071928;28;20711;-83
2022/08/25 05:58:35;;;;;;;23.80;8.77;;;;;;;23.31;86.42;94511.44;5072199;28;20225;-81
2022/08/25 06:02:39;;;;;;;16.33;8.23;;;;;;;23.28;85.84;94492.59;5072076;28;20194;-82
2022/08/25 06:03:53;;;;;;;15.18;7.68;;;;;;;23.43;85.47;94494.00;5072069;28;20263;-83
2022/08/25 06:06:20;;;;;;;20.13;8.48;;;;;;;23.28;84.61;94453.47;5071373;28;20735;-79
2022/08/25 06:08:47;;;;;;;15.73;7.68;;;;;;;23.64;83.82;94505.75;5071699;28;20230;-81
2022/08/25 06:11:15;;;;;;;12.80;7.80;;;;;;;23.73;84.64;94512.28;5071509;28;20190;-82
2022/08/25 06:13:42;;;;;;;18.58;7.47;;;;;;;23.64;84.67;94474.44;5071907;28;20182;-80
2022/08/25 06:16:09;;;;;;;18.45;7.38;;;;;;;23.88;83.13;94506.66;5071703;28;20187;-84
2022/08/25 06:18:36;;;;;;;14.80;7.38;;;;;;;23.88;82.61;94510.06;5070451;28;20669;-81
2022/08/25 06:21:11;;;;;;;15.80;7.55;;;;;;;23.89;81.88;94506.41;5071809;28;20233;-83
2022/08/25 06:23:39;;;;;;;16.52;8.35;;;;;;;23.95;82.15;94507.34;5071337;28;20198;-81
2022/08/25 06:26:11;;;;;;;20.88;7.88;;;;;;;24.01;82.00;94507.25;5071761;28;20779;-83
2022/08/25 06:28:40;;;;;;;16.98;7.30;;;;;;;24.13;82.08;94501.22;5071480;28;20664;-83
2022/08/25 06:31:09;;;;;;;19.77;7.88;;;;;;;24.08;81.56;94491.44;5072120;28;20182;-84
2022/08/25 06:33:36;;;;;;;13.27;7.22;;;;;;;24.22;80.67;94510.31;5071349;28;20202;-83
2022/08/25 06:36:25;;;;;;;19.85;7.90;;;;;;;24.19;80.88;94474.19;5071637;28;20205;-83
2022/08/25 06:38:53;;;;;;;15.48;8.15;;;;;;;24.15;80.89;94442.50;5071729;28;20195;-83
2022/08/25 06:41:28;;;;;;;18.27;8.40;;;;;;;24.52;80.14;94505.81;5071949;28;20221;-79
2022/08/25 06:43:58;;;;;;;19.55;7.97;;;;;;;24.67;78.93;94502.72;5070984;28;20190;-84
2022/08/25 06:46:28;;;;;;;18.95;7.50;;;;;;;24.75;78.23;94494.50;5070877;28;20674;-84
2022/08/25 06:48:58;;;;;;;15.52;7.43;;;;;;;24.95;78.92;94506.41;5071381;28;20252;-83
2022/08/25 06:51:29;;;;;;;15.63;8.60;;;;;;;25.02;77.26;94510.47;5070946;28;20276;-83
2022/08/25 06:53:56;;;;;;;12.77;8.00;;;;;;;25.18;75.82;94510.81;5070766;28;20230;-83
2022/08/25 06:56:26;;;;;;;20.63;7.88;;;;;;;24.64;76.06;94411.63;5071421;28;20241;-83
2022/08/25 06:58:53;;;;;;;13.35;7.63;;;;;;;25.15;75.88;94464.16;5071109;28;20225;-83
2022/08/25 07:01:25;;;;;;;15.43;8.05;;;;;;;25.50;76.34;94498.84;5070724;28;20201;-82
2022/08/25 07:03:56;;;;;;;17.67;8.45;;;;;;;25.58;74.85;94489.81;5070764;28;20205;-81
2022/08/25 07:06:23;;;;;;;12.27;7.50;;;;;;;25.83;74.76;94496.56;5070515;28;20253;-81
2022/08/25 07:08:57;;;;;;;9.38;7.68;;;;;;;25.93;73.62;94486.22;5070488;28;20197;-82
2022/08/25 07:11:28;;;;;;;20.60;7.68;;;;;;;26.21;73.75;94506.34;5070458;28;20194;-81
2022/08/25 07:13:55;;;;;;;13.48;6.43;;;;;;;26.36;71.47;94503.13;5070839;28;20641;-84
2022/08/25 07:19:03;;;;;;;17.10;7.43;;;;;;;26.56;70.38;94513.16;5069252;28;20205;-82
2022/08/25 07:21:32;;;;;;;13.32;6.97;;;;;;;26.45;69.49;94494.63;5070319;28;20689;-78
2022/08/25 07:24:02;;;;;;;14.48;7.57;;;;;;;26.79;70.51;94514.75;5070689;28;20195;-82
2022/08/25 07:26:33;;;;;;;17.40;7.72;;;;;;;26.94;69.67;94512.31;5069915;28;20703;-78
2022/08/25 07:29:00;;;;;;;15.93;7.57;;;;;;;27.06;67.81;94517.44;5070390;28;20186;-81
2022/08/25 07:31:28;;;;;;;22.75;6.70;;;;;;;26.87;67.92;94495.97;5069988;28;20186;-81
2022/08/25 07:36:39;;;;;;;12.25;6.68;;;;;;;27.34;68.27;94509.41;5069745;28;20205;-82
2022/08/25 07:39:07;;;;;;;12.10;6.28;;;;;;;27.59;67.38;94510.69;5069877;28;20202;-80
2022/08/25 07:41:37;;;;;;;17.15;6.55;;;;;;;27.83;66.38;94505.97;5069943;28;20194;-81
2022/08/25 07:44:04;;;;;;;16.00;6.50;;;;;;;27.91;64.91;94492.38;5069726;28;20266;-82
2022/08/25 07:46:31;;;;;;;15.70;5.75;;;;;;;28.11;65.26;94507.50;5069792;28;20327;-80
2022/08/25 07:48:58;;;;;;;19.50;7.03;;;;;;;28.13;64.61;94506.22;5069395;28;20195;-82
2022/08/25 07:51:25;;;;;;;8.38;5.88;;;;;;;28.16;65.16;94507.56;5069719;28;20186;-82
2022/08/25 07:53:52;;;;;;;13.38;6.47;;;;;;;28.07;65.40;94504.59;5069683;28;20205;-81
2022/08/25 07:56:20;;;;;;;17.65;6.80;;;;;;;27.99;63.87;94515.56;5069703;28;20186;-81
2022/08/25 07:58:47;;;;;;;21.98;7.18;;;;;;;27.75;64.13;94505.38;5069209;28;20190;-82
2022/08/25 08:01:16;;;;;;;20.27;6.55;;;;;;;27.77;63.88;94506.97;5069980;28;20191;-80
2022/08/25 08:03:43;;;;;;;16.60;5.97;;;;;;;27.66;65.09;94512.09;5069449;28;20186;-81
2022/08/25 08:06:11;;;;;;;16.35;6.40;;;;;;;27.74;64.87;94503.00;5069118;28;20697;-79
2022/08/25 08:08:41;;;;;;;18.67;6.60;;;;;;;27.87;64.31;94505.22;5069276;28;20584;-81
2022/08/25 08:11:14;;;;;;;19.52;6.22;;;;;;;27.96;64.38;94506.34;5069333;28;20273;-82
2022/08/25 08:13:43;;;;;;;16.15;6.47;;;;;;;28.03;64.52;94500.09;5069302;28;20208;-81
2022/08/25 08:16:10;;;;;;;29.50;6.57;;;;;;;28.14;63.87;94499.91;5069452;28;20190;-83
2022/08/25 08:18:37;;;;;;;20.95;6.07;;;;;;;28.24;63.38;94499.19;5069197;28;20248;-78
2022/08/25 08:21:04;;;;;;;15.75;6.28;;;;;;;28.04;63.31;94480.63;5069553;28;20179;-81
2022/08/25 08:23:31;;;;;;;20.60;6.53;;;;;;;27.95;64.34;94493.44;5069069;28;20678;-81
2022/08/25 08:25:58;;;;;;;12.23;5.90;;;;;;;28.11;63.93;94487.28;5069173;28;20228;-82
2022/08/25 08:28:26;;;;;;;25.85;6.65;;;;;;;28.08;62.94;94481.72;5069149;28;20289;-81
2022/08/25 08:30:55;;;;;;;17.13;5.95;;;;;;;28.05;63.27;94482.22;5069070;28;20191;-81
2022/08/25 08:33:23;;;;;;;19.13;6.88;;;;;;;27.93;63.30;94477.13;5067794;28;20182;-81
2022/08/25 08:35:56;;;;;;;16.48;6.43;;;;;;;28.06;63.45;94481.16;5068866;28;20198;-81
2022/08/25 08:38:23;;;;;;;18.20;6.47;;;;;;;27.99;63.44;94479.56;5069278;28;20209;-82
2022/08/25 08:43:53;;;;;;;18.45;6.63;;;;;;;27.80;62.93;94483.59;5073405;28;20779;-81
2022/08/25 08:46:22;;;;;;;13.13;6.10;;;;;;;27.74;64.03;94477.50;5073157;28;20214;-81
2022/08/25 08:49:00;;;;;;;18.23;6.95;;;;;;;27.74;64.33;94482.75;5072668;28;20580;-79
2022/08/25 08:51:33;;;;;;;20.60;6.80;;;;;;;27.85;63.04;94475.78;5073032;28;20192;-81
2022/08/25 08:54:08;;;;;;;21.52;6.53;;;;;;;27.96;63.01;94479.25;5072649;28;20190;-81
2022/08/25 08:56:39;;;;;;;35.83;6.95;;;;;;;28.05;61.21;94472.50;5073357;28;20205;-79
2022/08/25 08:59:11;;;;;;;31.90;7.05;;;;;;;28.08;61.85;94484.34;5072655;28;20190;-78
2022/08/25 09:01:47;;;;;;;21.80;6.15;;;;;;;28.03;62.20;94461.44;5073456;28;20210;-80
2022/08/25 09:04:18;;;;;;;24.65;6.63;;;;;;;28.05;60.85;94479.59;5072385;28;20573;-78
2022/08/25 09:06:48;;;;;;;29.48;6.70;;;;;;;27.94;60.01;94473.47;5072633;28;20303;-79
2022/08/25 09:09:20;;;;;;;22.38;6.00;;;;;;;27.87;60.45;94478.94;5072749;28;20235;-78
2022/08/25 09:12:01;;;;;;;26.92;6.97;;;;;;;27.82;61.37;94478.88;5072794;28;20187;-78
2022/08/25 09:14:39;;;;;;;25.40;6.65;;;;;;;27.80;61.93;94475.69;5072605;28;20194;-79
2022/08/25 09:17:20;;;;;;;17.67;6.18;;;;;;;27.85;61.38;94475.78;5072512;28;20618;-80
2022/08/25 09:20:09;;;;;;;25.95;6.20;;;;;;;27.91;60.91;94466.06;5072461;28;20213;-78
2022/08/25 09:22:52;;;;;;;22.17;5.75;;;;;;;27.89;61.34;94465.53;5073581;28;20197;-82
2022/08/25 09:25:26;;;;;;;21.88;6.53;;;;;;;27.87;61.29;94467.63;5072399;28;20626;-81
2022/08/25 09:28:02;;;;;;;22.60;5.95;;;;;;;27.89;58.94;94461.09;5072691;28;20213;-80
2022/08/25 09:30:39;;;;;;;20.92;6.10;;;;;;;27.85;58.75;94454.75;5073445;28;20197;-79
2022/08/25 09:33:09;;;;;;;23.05;5.70;;;;;;;27.81;59.41;94458.91;5082120;28;20284;-80
2022/08/25 09:35:39;;;;;;;17.05;5.90;;;;;;;27.63;58.61;94430.34;5087470;28;20198;-78
2022/08/25 09:38:09;;;;;;;25.45;6.20;;;;;;;27.80;59.86;94457.31;5086683;28;20259;-81
2022/08/25 09:40:37;;;;;;;26.05;6.25;;;;;;;27.81;59.14;94460.72;5074239;28;20190;-80
2022/08/25 09:43:18;;;;;;;28.30;6.28;;;;;;;27.67;59.58;94441.94;5074493;28;20205;-80
2022/08/25 09:45:48;;;;;;;28.90;6.55;;;;;;;27.83;59.51;94462.06;5071862;28;20681;-80
2022/08/25 09:48:26;;;;;;;27.02;6.15;;;;;;;27.88;58.91;94451.59;5072293;28;20209;-79
2022/08/25 09:50:59;;;;;;;28.90;6.75;;;;;;;27.88;58.07;94456.84;5071906;28;20197;-81
2022/08/25 09:53:27;;;;;;;31.45;5.55;;;;;;;27.89;58.94;94457.63;5070620;28;20186;-78
2022/08/25 09:55:59;;;;;;;27.80;5.72;;;;;;;27.87;57.87;94457.09;5071916;28;20197;-81
2022/08/25 09:58:26;;;;;;;17.70;5.38;;;;;;;27.87;55.65;94457.09;5071935;28;20283;-81
2022/08/25 10:01:17;;;;;;;30.48;5.35;;;;;;;27.77;56.69;94459.66;5071815;28;20730;-80
2022/08/25 10:04:00;;;;;;;22.58;5.00;;;;;;;27.79;54.23;94458.34;5049701;28;20287;-79
2022/08/25 10:06:30;;;;;;;28.13;5.60;;;;;;;27.74;55.80;94456.47;5049547;28;20218;-81
2022/08/25 10:09:00;;;;;;;22.55;4.53;;;;;;;27.74;54.74;94458.31;5049037;28;20191;-80
2022/08/25 10:11:42;;;;;;;25.20;5.22;;;;;;;27.73;54.88;94459.38;5049584;28;20184;-79
2022/08/25 10:14:27;;;;;;;22.25;4.88;;;;;;;27.71;54.46;94459.56;5049320;28;20191;-79
2022/08/25 10:17:12;;;;;;;17.95;4.85;;;;;;;27.66;53.81;94446.41;5049361;28;20273;-80
2022/08/25 10:19:40;;;;;;;20.13;3.70;;;;;;;27.78;54.34;94445.47;5049740;28;20733;-79
2022/08/25 10:22:10;;;;;;;22.10;4.50;;;;;;;27.65;55.17;94444.81;5050774;28;20571;-79
2022/08/25 10:24:38;;;;;;;24.58;4.80;;;;;;;27.63;54.28;94432.97;5052266;28;20265;-82
2022/08/25 10:27:17;;;;;;;32.13;4.57;;;;;;;27.69;53.94;94440.66;5052330;28;20222;-79
2022/08/25 10:30:06;;;;;;;21.52;4.22;;;;;;;27.79;54.99;94442.59;5052809;28;20214;-81
2022/08/25 10:32:53;;;;;;;17.58;4.10;;;;;;;27.86;53.53;94445.03;5053015;28;20343;-81
2022/08/25 10:35:26;;;;;;;29.73;5.18;;;;;;;27.90;54.64;94448.72;5064518;28;20677;-80
2022/08/25 10:38:08;;;;;;;19.27;3.95;;;;;;;27.79;52.28;94449.69;5072257;28;20201;-79
2022/08/25 10:40:46;;;;;;;27.20;4.45;;;;;;;27.62;52.70;94436.63;5083613;28;20568;-79
2022/08/25 10:43:28;;;;;;;20.52;5.00;;;;;;;27.49;54.14;94407.09;5079752;28;20185;-81
2022/08/25 10:46:07;;;;;;;29.45;4.88;;;;;;;27.59;53.54;94424.00;5079559;28;20186;-81
2022/08/25 10:48:51;;;;;;;19.23;4.68;;;;;;;27.79;54.19;94424.19;5073447;28;20197;-81
2022/08/25 10:51:32;;;;;;;12.65;4.40;;;;;;;27.92;51.93;94426.38;5074577;28;20661;-81
2022/08/25 10:54:07;;;;;;;18.10;4.35;;;;;;;28.06;51.70;94424.09;5071491;28;20194;-78
2022/08/25 10:56:39;;;;;;;16.70;3.85;;;;;;;28.11;51.11;94420.72;5071136;28;20194;-80
2022/08/25 10:59:29;;;;;;;22.95;4.88;;;;;;;28.20;51.37;94422.63;5070857;28;20583;-80
2022/08/25 11:02:30;;;;;;;18.63;4.60;;;;;;;28.07;52.03;94424.94;5071344;28;20182;-80
2022/08/25 11:05:02;;;;;;;18.83;4.50;;;;;;;27.98;52.16;94425.41;5070387;28;20268;-81
2022/08/25 11:07:35;;;;;;;20.20;3.95;;;;;;;27.84;51.46;94418.19;5070646;28;20249;-79
2022/08/25 11:10:08;;;;;;;22.02;3.92;;;;;;;27.64;52.57;94410.91;5070542;28;20212;-80
2022/08/25 11:12:40;;;;;;;17.55;4.28;;;;;;;27.79;53.12;94418.94;5070216;28;20229;-79
2022/08/25 11:15:10;;;;;;;30.25;4.38;;;;;;;27.88;52.80;94412.16;5070625;28;20205;-79
2022/08/25 11:17:43;;;;;;;12.40;4.15;;;;;;;27.92;53.27;94417.72;5070499;28;20252;-80
2022/08/25 11:20:16;;;;;;;28.17;4.53;;;;;;;27.84;53.17;94410.28;5070465;28;20197;-79
2022/08/25 11:22:48;;;;;;;24.05;4.30;;;;;;;28.04;52.29;94405.19;5070121;28;20220;-80
2022/08/25 11:25:19;;;;;;;16.42;4.00;;;;;;;28.06;52.95;94389.94;5070517;28;20566;-81
2022/08/25 11:27:55;;;;;;;31.77;3.97;;;;;;;28.10;52.42;94395.47;5070351;28;20321;-81
2022/08/25 11:30:22;;;;;;;29.13;4.10;;;;;;;28.20;52.53;94395.56;5070116;28;20190;-79
2022/08/25 11:32:51;;;;;;;26.40;4.60;;;;;;;28.10;51.81;94374.44;5070094;28;20194;-80
2022/08/25 11:35:26;;;;;;;20.30;5.38;;;;;;;28.10;51.94;94392.84;5070347;28;20194;-80
2022/08/25 11:38:11;;;;;;;21.83;4.18;;;;;;;28.17;51.44;94390.78;5069777;28;20197;-79
2022/08/25 11:40:49;;;;;;;20.60;4.53;;;;;;;28.20;51.69;94390.28;5070079;28;20194;-81
2022/08/25 11:43:34;;;;;;;28.65;5.68;;;;;;;28.18;51.37;94385.28;5069897;28;20267;-81
2022/08/25 11:46:18;;;;;;;16.20;5.10;;;;;;;27.99;51.69;94366.50;5069795;28;20190;-80
2022/08/25 11:48:58;;;;;;;17.23;4.32;;;;;;;27.84;51.07;94369.03;5069995;28;20190;-78
2022/08/25 11:51:32;;;;;;;17.30;4.28;;;;;;;27.91;52.08;94368.81;5069695;28;20186;-83
2022/08/25 11:54:19;;;;;;;15.80;4.65;;;;;;;27.84;51.80;94371.66;5069640;28;20194;-80
2022/08/25 11:56:54;;;;;;;10.13;3.42;;;;;;;27.85;51.93;94370.63;5069602;28;20190;-80